createdAt,value
2023-05-11T00:00:07.052Z,38.69
2023-05-11T00:02:54.731Z,38.78
2023-05-11T00:05:47.773Z,38.75
2023-05-11T00:08:38.259Z,38.77
2023-05-11T00:11:27.039Z,38.85
2023-05-11T00:14:15.104Z,38.80
2023-05-11T00:17:03.392Z,38.85
2023-05-11T00:19:51.484Z,38.94
2023-05-11T00:22:29.958Z,39.00
2023-05-11T00:25:09.302Z,39.00
2023-05-11T00:27:58.208Z,39.02
2023-05-11T00:30:40.356Z,39.08
2023-05-11T00:33:29.385Z,39.17
2023-05-11T00:36:17.741Z,39.25
2023-05-11T00:38:56.138Z,39.24
2023-05-11T00:41:44.397Z,39.31
2023-05-11T00:44:33.020Z,39.47
2023-05-11T00:47:21.028Z,39.31
2023-05-11T00:50:10.827Z,39.49
2023-05-11T00:53:00.150Z,39.37
2023-05-11T00:55:48.306Z,39.37
2023-05-11T00:58:28.812Z,39.55
2023-05-11T01:01:18.255Z,39.61
2023-05-11T01:04:07.831Z,39.61
2023-05-11T01:07:01.040Z,39.63
2023-05-11T01:09:55.558Z,39.67
2023-05-11T01:12:37.790Z,39.74
2023-05-11T01:15:29.721Z,39.83
2023-05-11T01:18:22.311Z,39.80
2023-05-11T01:21:06.046Z,39.88
2023-05-11T01:24:09.106Z,39.95
2023-05-11T01:27:05.425Z,39.94
2023-05-11T01:30:11.670Z,39.92
2023-05-11T01:32:56.122Z,39.96
2023-05-11T01:35:48.286Z,40.06
2023-05-11T01:38:29.316Z,40.13
2023-05-11T01:41:18.817Z,40.11
2023-05-11T01:44:09.578Z,40.09
2023-05-11T01:46:59.367Z,40.20
2023-05-11T01:49:48.288Z,40.12
2023-05-11T01:52:27.815Z,40.23
2023-05-11T01:55:17.835Z,40.32
2023-05-11T01:58:08.185Z,40.24
2023-05-11T02:00:57.500Z,40.33
2023-05-11T02:03:46.488Z,40.34
2023-05-11T02:06:19.740Z,40.41
2023-05-11T02:09:10.597Z,40.38
2023-05-11T02:12:00.634Z,40.35
2023-05-11T02:14:49.974Z,40.59
2023-05-11T02:17:39.587Z,40.48
2023-05-11T02:20:28.257Z,40.60
2023-05-11T02:23:18.281Z,40.61
2023-05-11T02:26:08.130Z,40.74
2023-05-11T02:28:56.518Z,40.68
2023-05-11T02:31:46.772Z,40.63
2023-05-11T02:34:28.295Z,40.73
2023-05-11T02:37:06.832Z,40.68
2023-05-11T02:39:57.892Z,40.81
2023-05-11T02:42:48.884Z,40.81
2023-05-11T02:45:37.707Z,40.93
2023-05-11T02:48:22.496Z,40.89
2023-05-11T02:51:03.237Z,40.92
2023-05-11T02:53:52.437Z,40.94
2023-05-11T02:56:41.080Z,41.02
2023-05-11T02:59:30.579Z,41.04
2023-05-11T03:02:19.078Z,41.01
2023-05-11T03:05:08.153Z,41.05
2023-05-11T03:07:52.456Z,41.11
2023-05-11T03:10:42.458Z,41.26
2023-05-11T03:13:24.840Z,41.26
2023-05-11T03:16:07.719Z,41.20
2023-05-11T03:18:56.067Z,41.27
2023-05-11T03:21:44.863Z,41.30
2023-05-11T03:24:26.845Z,41.38
2023-05-11T03:27:16.295Z,41.34
2023-05-11T03:30:05.163Z,41.43
2023-05-11T03:32:50.030Z,41.43
2023-05-11T03:35:41.854Z,41.42
2023-05-11T03:38:31.052Z,41.55
2023-05-11T03:41:21.241Z,41.49
2023-05-11T03:44:11.013Z,41.65
2023-05-11T03:46:40.944Z,41.66
2023-05-11T03:49:31.613Z,41.74
2023-05-11T03:52:20.037Z,41.81
2023-05-11T03:55:11.094Z,41.98
2023-05-11T03:57:59.065Z,42.00
2023-05-11T04:00:48.674Z,42.07
2023-05-11T04:03:57.599Z,42.20
2023-05-11T04:06:45.780Z,42.35
2023-05-11T04:09:36.780Z,43.00
2023-05-11T04:12:25.024Z,43.67
2023-05-11T04:15:13.096Z,43.96
2023-05-11T04:18:01.047Z,44.30
2023-05-11T04:20:49.851Z,44.35
2023-05-11T04:23:38.217Z,44.00
2023-05-11T04:26:26.437Z,43.66
2023-05-11T04:29:15.400Z,43.07
2023-05-11T04:31:59.257Z,42.78
2023-05-11T04:34:40.986Z,42.14
2023-05-11T04:37:29.690Z,40.98
2023-05-11T04:40:18.405Z,40.42
2023-05-11T04:43:06.926Z,40.77
2023-05-11T04:45:54.879Z,41.48
2023-05-11T04:48:45.841Z,41.22
2023-05-11T04:51:32.979Z,41.02
2023-05-11T04:54:21.059Z,40.80
2023-05-11T04:57:11.118Z,40.49
2023-05-11T04:59:51.709Z,39.98
2023-05-11T05:02:39.964Z,39.46
2023-05-11T05:05:28.826Z,39.34
2023-05-11T05:08:18.129Z,39.08
2023-05-11T05:11:06.479Z,38.78
2023-05-11T05:13:55.069Z,38.27
2023-05-11T05:17:03.839Z,38.19
2023-05-11T05:19:51.115Z,38.03
2023-05-11T05:22:39.518Z,37.70
2023-05-11T05:25:22.687Z,37.14
2023-05-11T05:28:10.879Z,36.39
2023-05-11T05:30:59.291Z,35.39
2023-05-11T05:33:49.060Z,35.07
2023-05-11T05:36:38.641Z,35.19
2023-05-11T05:39:27.479Z,35.93
2023-05-11T05:42:16.098Z,35.70
2023-05-11T05:45:08.169Z,35.58
2023-05-11T05:47:59.979Z,35.32
2023-05-11T05:50:48.088Z,35.26
2023-05-11T05:53:31.704Z,34.93
2023-05-11T05:56:21.329Z,34.28
2023-05-11T05:59:10.345Z,34.37
2023-05-11T06:01:58.715Z,33.99
2023-05-11T06:04:47.455Z,33.93
2023-05-11T06:07:36.000Z,34.08
2023-05-11T06:10:26.350Z,33.97
2023-05-11T06:13:14.520Z,34.40
2023-05-11T06:16:04.056Z,34.17
2023-05-11T06:18:52.664Z,34.23
2023-05-11T06:21:43.291Z,34.44
2023-05-11T06:24:36.059Z,34.57
2023-05-11T06:27:25.616Z,34.52
2023-05-11T06:32:21.073Z,34.24
2023-05-11T06:35:13.783Z,34.60
2023-05-11T06:38:07.941Z,34.66
2023-05-11T06:41:00.724Z,34.85
2023-05-11T06:43:52.492Z,34.84
2023-05-11T06:46:51.619Z,34.86
2023-05-11T06:49:46.426Z,35.02
2023-05-11T06:52:40.460Z,35.15
2023-05-11T06:55:33.940Z,35.31
2023-05-11T06:58:25.978Z,35.32
2023-05-11T07:01:09.264Z,35.16
2023-05-11T07:03:54.172Z,35.44
2023-05-11T07:06:48.210Z,35.15
2023-05-11T07:09:41.998Z,35.38
2023-05-11T07:12:35.650Z,35.31
2023-05-11T07:15:22.621Z,35.06
2023-05-11T07:18:54.690Z,35.38
2023-05-11T07:21:46.355Z,35.33
2023-05-11T07:24:39.565Z,35.29
2023-05-11T07:27:45.846Z,35.26
2023-05-11T07:30:46.092Z,35.21
2023-05-11T07:33:40.919Z,35.03
2023-05-11T07:36:33.680Z,35.14
2023-05-11T07:39:17.292Z,35.02
2023-05-11T07:42:09.691Z,34.90
2023-05-11T07:45:02.652Z,34.51
2023-05-11T07:47:46.259Z,34.45
2023-05-11T07:50:41.393Z,34.59
2023-05-11T07:53:36.839Z,34.66
2023-05-11T07:56:29.410Z,34.49
2023-05-11T07:59:12.018Z,34.57
2023-05-11T08:02:04.866Z,34.50
2023-05-11T08:04:47.803Z,34.30
2023-05-11T08:07:41.779Z,34.13
2023-05-11T08:10:35.430Z,34.10
2023-05-11T08:13:28.627Z,34.24
2023-05-11T08:16:21.932Z,34.35
2023-05-11T08:19:14.350Z,33.98
2023-05-11T08:22:07.785Z,33.80
2023-05-11T08:25:00.332Z,33.96
2023-05-11T08:27:52.622Z,33.91
2023-05-11T08:30:45.296Z,33.89
2023-05-11T08:33:38.888Z,33.84
2023-05-11T08:36:32.064Z,33.91
2023-05-11T08:39:43.714Z,33.74
2023-05-11T08:42:30.575Z,33.74
2023-05-11T08:45:24.101Z,33.64
2023-05-11T08:48:11.456Z,33.64
2023-05-11T08:51:05.429Z,33.68
2023-05-11T08:53:59.893Z,33.55
2023-05-11T08:56:54.754Z,33.49
2023-05-11T08:59:49.131Z,33.64
2023-05-11T09:02:32.911Z,33.50
2023-05-11T09:05:20.597Z,33.54
2023-05-11T09:08:15.474Z,33.42
2023-05-11T09:11:11.108Z,33.27
2023-05-11T09:14:04.752Z,32.83
2023-05-11T09:16:58.923Z,33.00
2023-05-11T09:20:06.669Z,32.88
2023-05-11T09:22:59.605Z,32.51
2023-05-11T09:25:52.005Z,32.43
2023-05-11T09:29:02.371Z,32.46
2023-05-11T09:31:56.986Z,32.62
2023-05-11T09:34:49.349Z,32.41
2023-05-11T09:37:57.832Z,32.45
2023-05-11T09:40:56.310Z,32.10
2023-05-11T09:43:50.323Z,32.05
2023-05-11T09:46:44.739Z,31.71
2023-05-11T09:49:53.007Z,31.59
2023-05-11T09:52:53.523Z,31.57
2023-05-11T09:55:54.691Z,31.53
2023-05-11T09:58:52.637Z,31.04
2023-05-11T10:01:45.463Z,31.07
2023-05-11T10:04:38.050Z,31.10
2023-05-11T10:07:32.254Z,30.95
2023-05-11T10:10:25.505Z,30.98
2023-05-11T10:13:18.028Z,31.02
2023-05-11T10:16:13.342Z,30.78
2023-05-11T10:19:06.572Z,30.75
2023-05-11T10:21:57.873Z,30.58
2023-05-11T10:24:51.409Z,30.30
2023-05-11T10:27:40.181Z,30.27
2023-05-11T10:30:13.837Z,30.30
2023-05-11T10:33:07.666Z,30.24
2023-05-11T10:36:01.241Z,30.17
2023-05-11T10:38:55.846Z,29.88
2023-05-11T10:42:06.063Z,30.10
2023-05-11T10:45:14.067Z,29.82
2023-05-11T10:48:40.314Z,29.64
2023-05-11T10:51:41.875Z,30.02
2023-05-11T10:54:51.549Z,30.00
2023-05-11T10:58:09.621Z,29.83
2023-05-11T11:01:27.341Z,29.72
2023-05-11T11:04:20.620Z,29.72
2023-05-11T11:07:09.104Z,29.59
2023-05-11T11:10:06.785Z,29.63
2023-05-11T11:13:07.364Z,29.49
2023-05-11T11:16:16.746Z,29.53
2023-05-11T11:19:42.164Z,29.45
2023-05-11T11:22:51.369Z,29.58
2023-05-11T11:25:56.413Z,29.35
2023-05-11T11:29:13.641Z,29.36
2023-05-11T11:32:30.234Z,29.12
2023-05-11T11:35:50.041Z,29.22
2023-05-11T11:38:34.269Z,29.18
2023-05-11T11:41:34.234Z,28.96
2023-05-11T11:44:27.876Z,29.09
2023-05-11T11:47:34.029Z,29.11
2023-05-11T11:50:31.069Z,29.25
2023-05-11T11:54:10.168Z,29.20
2023-05-11T11:57:03.082Z,29.18
2023-05-11T11:59:55.751Z,29.08
2023-05-11T12:02:49.308Z,29.04
2023-05-11T12:05:45.586Z,29.11
2023-05-11T12:08:40.401Z,28.91
2023-05-11T12:11:33.186Z,28.93
2023-05-11T12:14:26.463Z,28.80
2023-05-11T12:17:25.268Z,28.70
2023-05-11T12:20:20.673Z,28.58
2023-05-11T12:23:15.575Z,28.62
2023-05-11T12:26:11.969Z,28.45
2023-05-11T12:29:11.863Z,28.52
2023-05-11T12:32:05.451Z,28.63
2023-05-11T12:35:06.154Z,28.73
2023-05-11T12:38:00.833Z,28.52
2023-05-11T12:40:54.910Z,28.60
2023-05-11T12:43:47.360Z,28.47
2023-05-11T12:46:40.169Z,28.63
2023-05-11T12:49:32.653Z,28.67
2023-05-11T12:52:17.778Z,28.75
2023-05-11T12:55:11.891Z,28.69
2023-05-11T12:58:15.370Z,28.72
2023-05-11T13:01:11.328Z,28.67
2023-05-11T13:03:54.474Z,28.74
2023-05-11T13:06:38.413Z,28.75
2023-05-11T13:09:27.701Z,28.69
2023-05-11T13:12:21.300Z,28.79
2023-05-11T13:15:16.628Z,28.69
2023-05-11T13:18:03.710Z,28.81
2023-05-11T13:21:10.016Z,28.83
2023-05-11T13:24:04.183Z,28.75
2023-05-11T13:26:58.623Z,28.88
2023-05-11T13:29:50.908Z,28.96
2023-05-11T13:32:43.417Z,28.89
2023-05-11T13:35:39.329Z,28.74
2023-05-11T13:38:32.182Z,28.79
2023-05-11T13:41:17.332Z,28.76
2023-05-11T13:44:10.094Z,28.81
2023-05-11T13:46:56.031Z,28.96
2023-05-11T13:49:49.169Z,28.95
2023-05-11T13:52:42.175Z,28.98
2023-05-11T13:55:34.559Z,28.88
2023-05-11T13:58:28.314Z,28.95
2023-05-11T14:01:20.876Z,28.89
2023-05-11T14:04:12.755Z,28.90
2023-05-11T14:07:05.980Z,28.83
2023-05-11T14:09:58.418Z,28.95
2023-05-11T14:12:39.705Z,29.12
2023-05-11T14:15:32.905Z,28.93
2023-05-11T14:18:26.195Z,28.79
2023-05-11T14:21:18.957Z,28.94
2023-05-11T14:24:12.766Z,29.07
2023-05-11T14:27:00.494Z,29.03
2023-05-11T14:29:53.160Z,29.18
2023-05-11T14:32:46.055Z,29.15
2023-05-11T14:35:40.107Z,29.23
2023-05-11T14:38:32.924Z,29.12
2023-05-11T14:41:25.775Z,29.11
2023-05-11T14:44:19.049Z,29.19
2023-05-11T14:47:12.052Z,29.19
2023-05-11T14:50:04.759Z,28.98
2023-05-11T14:52:57.040Z,29.24
2023-05-11T14:55:49.485Z,29.29
2023-05-11T14:58:42.025Z,29.29
2023-05-11T15:02:19.785Z,29.23
2023-05-11T15:04:47.516Z,29.22
2023-05-11T15:07:33.483Z,29.30
2023-05-11T15:10:16.898Z,29.33
2023-05-11T15:13:10.285Z,29.22
2023-05-11T15:16:01.546Z,29.37
2023-05-11T15:18:53.838Z,29.23
2023-05-11T15:21:46.280Z,29.44
2023-05-11T15:24:40.014Z,29.29
2023-05-11T15:27:32.740Z,29.39
2023-05-11T15:30:25.827Z,29.50
2023-05-11T15:33:18.481Z,29.44
2023-05-11T15:36:02.560Z,29.54
2023-05-11T15:38:54.907Z,29.61
2023-05-11T15:41:47.663Z,29.52
2023-05-11T15:44:41.647Z,29.41
2023-05-11T15:47:34.284Z,29.43
2023-05-11T15:50:27.815Z,29.50
2023-05-11T15:53:20.358Z,29.40
2023-05-11T15:56:04.080Z,29.69
2023-05-11T15:58:56.589Z,29.57
2023-05-11T16:01:49.566Z,29.63
2023-05-11T16:04:42.193Z,29.76
2023-05-11T16:07:27.471Z,29.81
2023-05-11T16:10:20.202Z,29.72
2023-05-11T16:13:12.869Z,29.81
2023-05-11T16:16:07.836Z,29.77
2023-05-11T16:19:00.651Z,29.79
2023-05-11T16:21:53.482Z,29.94
2023-05-11T16:24:46.469Z,29.89
2023-05-11T16:27:41.326Z,29.93
2023-05-11T16:30:34.040Z,29.85
2023-05-11T16:33:26.839Z,29.95
2023-05-11T16:36:19.220Z,29.94
2023-05-11T16:39:13.058Z,30.01
2023-05-11T16:42:06.595Z,30.12
2023-05-11T16:44:56.044Z,30.11
2023-05-11T16:47:48.597Z,30.10
2023-05-11T16:50:41.231Z,30.07
2023-05-11T16:53:33.862Z,30.03
2023-05-11T16:56:26.747Z,30.12
2023-05-11T16:59:19.447Z,30.27
2023-05-11T17:02:12.205Z,30.14
2023-05-11T17:05:05.680Z,30.39
2023-05-11T17:07:58.041Z,30.38
2023-05-11T17:10:41.569Z,30.35
2023-05-11T17:13:35.201Z,30.49
2023-05-11T17:16:28.770Z,30.48
2023-05-11T17:19:21.446Z,30.46
2023-05-11T17:22:03.571Z,30.45
2023-05-11T17:24:58.293Z,30.62
2023-05-11T17:27:52.762Z,30.59
2023-05-11T17:30:48.208Z,30.68
2023-05-11T17:33:43.618Z,30.68
2023-05-11T17:36:36.806Z,30.69
2023-05-11T17:39:21.493Z,30.83
2023-05-11T17:42:14.275Z,30.81
2023-05-11T17:45:10.249Z,30.91
2023-05-11T17:48:03.160Z,30.77
2023-05-11T17:50:51.879Z,30.75
2023-05-11T17:53:44.181Z,31.02
2023-05-11T17:56:37.128Z,30.88
2023-05-11T17:59:31.585Z,30.86
2023-05-11T18:02:25.085Z,31.14
2023-05-11T18:05:18.531Z,31.01
2023-05-11T18:08:11.049Z,31.13
2023-05-11T18:11:04.169Z,31.37
2023-05-11T18:13:56.986Z,31.10
2023-05-11T18:16:51.154Z,31.17
2023-05-11T18:19:44.108Z,31.30
2023-05-11T18:22:37.843Z,31.42
2023-05-11T18:25:32.508Z,31.60
2023-05-11T18:28:24.964Z,31.56
2023-05-11T18:31:19.424Z,31.73
2023-05-11T18:34:11.886Z,31.42
2023-05-11T18:37:04.685Z,31.82
2023-05-11T18:39:57.428Z,31.53
2023-05-11T18:42:49.890Z,31.73
2023-05-11T18:45:41.623Z,31.79
2023-05-11T18:48:35.941Z,31.99
2023-05-11T18:51:29.117Z,31.76
2023-05-11T18:54:12.908Z,31.92
2023-05-11T18:56:58.658Z,31.99
2023-05-11T18:59:52.083Z,32.17
2023-05-11T19:02:39.170Z,32.06
2023-05-11T19:05:32.770Z,32.38
2023-05-11T19:08:25.929Z,32.20
2023-05-11T19:11:18.767Z,32.51
2023-05-11T19:14:14.700Z,32.60
2023-05-11T19:17:08.281Z,32.50
2023-05-11T19:20:00.960Z,32.60
2023-05-11T19:22:53.583Z,32.60
2023-05-11T19:25:46.326Z,32.85
2023-05-11T19:28:40.329Z,32.83
2023-05-11T19:31:33.087Z,32.92
2023-05-11T19:34:25.939Z,32.95
2023-05-11T19:37:18.972Z,33.17
2023-05-11T19:40:44.029Z,33.19
2023-05-11T19:43:38.490Z,33.30
2023-05-11T19:46:31.209Z,33.53
2023-05-11T19:49:17.780Z,33.72
2023-05-11T19:52:10.681Z,33.67
2023-05-11T19:55:03.658Z,33.70
2023-05-11T19:57:38.626Z,33.83
2023-05-11T20:00:25.445Z,34.00
2023-05-11T20:03:18.701Z,33.78
2023-05-11T20:06:11.526Z,34.03
2023-05-11T20:09:05.578Z,34.12
2023-05-11T20:11:51.569Z,34.24
2023-05-11T20:14:44.083Z,34.35
2023-05-11T20:17:27.749Z,34.44
2023-05-11T20:20:20.529Z,34.43
2023-05-11T20:23:13.472Z,34.48
2023-05-11T20:25:53.841Z,34.55
2023-05-11T20:28:27.579Z,34.53
2023-05-11T20:31:21.781Z,34.80
2023-05-11T20:34:14.330Z,34.73
2023-05-11T20:37:09.075Z,34.89
2023-05-11T20:40:01.603Z,34.92
2023-05-11T20:42:54.012Z,35.22
2023-05-11T20:45:37.880Z,34.91
2023-05-11T20:48:39.080Z,35.23
2023-05-11T20:51:35.270Z,35.27
2023-05-11T20:54:28.503Z,35.11
2023-05-11T20:57:22.442Z,35.38
2023-05-11T21:02:53.896Z,35.42
2023-05-11T21:05:46.754Z,35.45
2023-05-11T21:08:31.768Z,35.59
2023-05-11T21:11:13.185Z,35.57
2023-05-11T21:14:06.040Z,35.77
2023-05-11T21:16:58.565Z,35.78
2023-05-11T21:19:50.946Z,35.68
2023-05-11T21:22:43.562Z,35.66
2023-05-11T21:25:36.897Z,35.97
2023-05-11T21:28:29.622Z,35.99
2023-05-11T21:31:22.182Z,35.85
2023-05-11T21:34:15.438Z,35.95
2023-05-11T21:37:08.917Z,36.14
2023-05-11T21:40:00.452Z,36.14
2023-05-11T21:42:52.796Z,36.13
2023-05-11T21:45:47.105Z,36.17
2023-05-11T21:48:42.534Z,36.36
2023-05-11T21:51:37.233Z,36.33
2023-05-11T21:54:29.592Z,36.42
2023-05-11T21:57:22.211Z,36.61
2023-05-11T22:00:18.851Z,36.61
2023-05-11T22:03:12.159Z,36.69
2023-05-11T22:06:05.183Z,36.75
2023-05-11T22:08:57.876Z,36.65
2023-05-11T22:11:50.172Z,36.80
2023-05-11T22:14:36.878Z,36.88
2023-05-11T22:17:29.718Z,36.95
2023-05-11T22:20:22.200Z,36.99
2023-05-11T22:23:04.692Z,37.02
2023-05-11T22:25:56.932Z,37.17
2023-05-11T22:28:49.346Z,37.01
2023-05-11T22:31:44.046Z,37.30
2023-05-11T22:34:31.302Z,37.26
2023-05-11T22:37:23.933Z,37.51
2023-05-11T22:40:17.151Z,37.52
2023-05-11T22:43:10.249Z,37.42
2023-05-11T22:46:02.802Z,37.44
2023-05-11T22:48:55.557Z,37.64
2023-05-11T22:51:48.561Z,37.66
2023-05-11T22:54:36.730Z,37.67
2023-05-11T22:57:29.657Z,37.75
2023-05-11T23:00:14.257Z,37.82
2023-05-11T23:03:07.722Z,37.75
2023-05-11T23:06:00.591Z,38.00
2023-05-11T23:08:53.905Z,37.87
2023-05-11T23:11:41.580Z,38.01
2023-05-11T23:14:29.628Z,38.14
2023-05-11T23:17:22.366Z,38.03
2023-05-11T23:20:15.737Z,38.23
2023-05-11T23:23:01.500Z,38.21
2023-05-11T23:25:53.887Z,38.41
2023-05-11T23:28:46.866Z,38.44
2023-05-11T23:31:34.443Z,38.53
2023-05-11T23:34:29.104Z,38.47
2023-05-11T23:37:22.307Z,38.63
2023-05-11T23:40:15.327Z,38.69
2023-05-11T23:43:08.506Z,38.71
2023-05-11T23:46:01.321Z,38.84
2023-05-11T23:48:53.685Z,38.88
2023-05-11T23:51:46.195Z,38.96
2023-05-11T23:54:38.549Z,39.00
2023-05-11T23:57:31.674Z,38.98
